ジュネーヴ の空港の天気 - METARとTAF

ジュネーヴ・コアントラン国際空港 ( LSGG / GVA ) - スイス ジュネーヴ
飛行場実況気象(Metar)
観測時間05/30 19:50 CEST (05/30 17:50 UTC)
風向・風速北北東 4m/s
視程10km以上
天気現象
少しの雲 雲底高度 1520m
全天の4割程度の雲 雲底高度 2290m
気温20℃
湿度43%
気圧1015hPa
METARLSGG 301750Z 03007KT 9999 FEW050 SCT075 20/07 Q1015 NOSIG
過去の天気等 Google飛行場航空写真 Wunderground天気予報

過去48時間のMETAR

飛行場予報(TAF)
発表時間: 5/30 19:25 CEST (5/30 17:25 UTC)
予報対象時間: 30日20時 CEST ~ 1日2時 CEST
風向・風速不定 2m/s
視程10km以上
少しの雲 雲底高度 1520m
全天の4割程度の雲 雲底高度 1830m
30日22時 CEST ~ 30日24時 CEST に徐々に
視程10km以上
なし
31日10時 CEST ~ 31日12時 CEST に徐々に
風向・風速北東 4m/s
TAF LSGG 301725Z 3018/3124 VRB03KT 9999 FEW050 SCT060 TX22/3115Z TN09/3105Z
BECMG 3020/3022 CAVOK
BECMG 3108/3110 05008KT